createdAt,value
2022-11-16T00:02:48.085Z,15.94
2022-11-16T00:12:49.489Z,15.92
2022-11-16T00:22:50.867Z,15.87
2022-11-16T00:32:52.330Z,15.83
2022-11-16T00:42:53.883Z,15.83
2022-11-16T00:52:55.299Z,15.80
2022-11-16T01:02:56.711Z,15.83
2022-11-16T01:12:58.295Z,15.84
2022-11-16T01:22:59.777Z,15.80
2022-11-16T01:33:01.149Z,15.75
2022-11-16T01:43:02.995Z,15.78
2022-11-16T01:53:05.473Z,15.79
2022-11-16T02:03:06.862Z,15.84
2022-11-16T02:13:21.671Z,15.87
2022-11-16T02:23:45.555Z,15.89
2022-11-16T02:33:47.068Z,15.91
2022-11-16T02:43:52.605Z,15.93
2022-11-16T02:54:08.414Z,15.93
2022-11-16T03:04:28.598Z,15.98
2022-11-16T03:14:39.434Z,15.94
2022-11-16T03:24:41.053Z,15.96
2022-11-16T03:34:44.196Z,15.89
2022-11-16T03:44:45.584Z,15.84
2022-11-16T03:54:46.970Z,15.87
2022-11-16T04:05:06.789Z,15.86
2022-11-16T04:15:28.524Z,15.83
2022-11-16T04:25:31.344Z,15.85
2022-11-16T04:35:53.121Z,15.81
2022-11-16T04:46:12.847Z,15.79
2022-11-16T04:56:14.228Z,15.75
2022-11-16T05:06:15.777Z,15.71
2022-11-16T05:16:17.159Z,15.68
2022-11-16T05:26:18.561Z,15.74
2022-11-16T05:36:19.942Z,15.85
2022-11-16T05:46:21.954Z,16.02
2022-11-16T05:56:23.437Z,16.27
2022-11-16T06:06:24.868Z,16.41
2022-11-16T06:16:26.260Z,16.53
2022-11-16T06:26:27.693Z,16.54
2022-11-16T06:36:29.212Z,16.56
2022-11-16T06:46:30.730Z,16.67
2022-11-16T06:56:34.287Z,16.62
2022-11-16T07:06:35.749Z,16.74
2022-11-16T07:16:37.162Z,16.76
2022-11-16T07:26:38.647Z,16.86
2022-11-16T07:36:40.107Z,17.09
2022-11-16T07:46:49.025Z,17.55
2022-11-16T07:56:50.529Z,17.80
2022-11-16T08:06:52.073Z,18.13
2022-11-16T08:16:53.545Z,18.80
2022-11-16T08:26:55.196Z,18.92
2022-11-16T08:36:56.741Z,19.43
2022-11-16T08:46:58.222Z,19.87
2022-11-16T08:56:59.595Z,19.71
2022-11-16T09:07:01.033Z,19.16
2022-11-16T09:17:02.482Z,18.87
2022-11-16T09:27:03.946Z,19.07
2022-11-16T09:37:05.390Z,18.88
2022-11-16T09:47:17.472Z,19.12
2022-11-16T09:57:19.573Z,19.22
2022-11-16T10:07:31.441Z,19.24
2022-11-16T10:17:51.682Z,19.05
2022-11-16T10:28:38.615Z,18.91
2022-11-16T10:38:40.336Z,18.72
2022-11-16T10:48:49.171Z,18.50
2022-11-16T10:59:09.499Z,18.32
2022-11-16T11:09:33.707Z,18.23
2022-11-16T11:19:35.276Z,18.18
2022-11-16T11:29:37.812Z,18.10
2022-11-16T11:39:39.305Z,18.00
2022-11-16T11:49:42.114Z,17.94
2022-11-16T11:59:43.487Z,17.87
2022-11-16T12:09:52.609Z,17.84
2022-11-16T12:20:12.760Z,17.93
2022-11-16T12:30:18.969Z,18.01
2022-11-16T12:40:46.205Z,17.97
2022-11-16T12:51:02.750Z,17.99
2022-11-16T13:01:32.092Z,18.02
2022-11-16T13:11:50.472Z,18.13
2022-11-16T13:22:03.541Z,18.08
2022-11-16T13:32:16.515Z,18.15
2022-11-16T13:42:18.150Z,18.12
2022-11-16T13:52:26.407Z,18.15
2022-11-16T14:02:42.309Z,18.08
2022-11-16T14:12:53.336Z,18.01
2022-11-16T14:23:19.858Z,17.93
2022-11-16T14:33:28.995Z,17.91
2022-11-16T14:43:42.799Z,17.85
2022-11-16T14:53:56.285Z,17.84
2022-11-16T15:04:06.473Z,17.80
2022-11-16T15:14:07.897Z,17.73
2022-11-16T15:24:29.529Z,17.63
2022-11-16T15:34:30.865Z,17.50
2022-11-16T15:44:32.926Z,17.41
2022-11-16T15:54:53.495Z,17.34
2022-11-16T16:04:54.885Z,17.29
2022-11-16T16:15:23.778Z,17.20
2022-11-16T16:25:30.013Z,17.06
2022-11-16T16:35:31.472Z,17.00
2022-11-16T16:45:38.688Z,16.94
2022-11-16T16:55:40.858Z,16.85
2022-11-16T17:05:42.494Z,16.73
2022-11-16T17:15:43.861Z,16.58
2022-11-16T17:25:45.268Z,16.49
2022-11-16T17:35:57.732Z,16.37
2022-11-16T17:46:07.073Z,16.25
2022-11-16T17:56:16.971Z,16.16
2022-11-16T18:06:19.865Z,16.13
2022-11-16T18:16:22.633Z,16.07
2022-11-16T18:26:24.165Z,16.00
2022-11-16T18:36:25.553Z,15.95
2022-11-16T18:46:30.789Z,15.85
2022-11-16T18:56:32.267Z,15.83
2022-11-16T19:06:33.671Z,15.75
2022-11-16T19:16:35.224Z,15.68
2022-11-16T19:26:37.205Z,15.66
2022-11-16T19:36:38.734Z,15.61
2022-11-16T19:46:40.135Z,15.65
2022-11-16T19:56:41.791Z,15.63
2022-11-16T20:06:43.213Z,15.61
2022-11-16T20:16:46.238Z,15.58
2022-11-16T20:26:48.165Z,15.56
2022-11-16T20:36:50.938Z,15.52
2022-11-16T20:46:52.802Z,15.56
2022-11-16T20:56:54.366Z,15.45
2022-11-16T21:06:56.034Z,15.51
2022-11-16T21:16:57.629Z,15.43
2022-11-16T21:26:59.389Z,15.34
2022-11-16T21:37:00.753Z,15.32
2022-11-16T21:47:02.147Z,15.34
2022-11-16T21:57:03.690Z,15.30
2022-11-16T22:07:23.478Z,15.32
2022-11-16T22:17:25.021Z,15.26
2022-11-16T22:27:26.414Z,15.26
2022-11-16T22:37:27.831Z,15.21
2022-11-16T22:47:29.205Z,15.19
2022-11-16T22:57:30.590Z,15.19
2022-11-16T23:07:32.045Z,15.09
2022-11-16T23:17:33.551Z,15.00
2022-11-16T23:28:04.413Z,14.91
2022-11-16T23:38:06.360Z,14.87
2022-11-16T23:48:08.282Z,14.87
2022-11-16T23:58:13.556Z,14.78
